Garrison, ND

6:52 PM CDT on October 24, 2014 (GMT -0500)
Garrison | Change Station
CLOSE
Current Station
Airport
Location: Garrison,
Elevation: 1909 ft
Nearby Weather Stations

Elev 1909 ft 47.65 °N, 101.44 °W | Updated 1 hour ago

Partly Cloudy
Partly Cloudy
60 °F
Feels Like 60 °F
N
17
Wind Variable Wind from WNW
Gusts 23 mph

Today
High -- | Low -- °F
--% Chance of Precip.
Yesterday
High -- | Low -- °F
Precip. -- in
8:17 AM 6:41 PM
New Moon, 1% visible
Pressure 29.94 in
Visibility -9999.0 miles
Clouds
Dew Point 30 °F
Humidity 32%
Rainfall 0.00 in
Snow Depth Not available.
UV Not available.
Pollen 2.70 out of 12
Air Quality Not available.
Flu Activity Sporadic
METAR KN60 242252Z AUTO 30015KT 16/M01 A2992 RMK AO1 SLP138 T01561011

More Conditions Fewer Conditions

Pressure 29.94 in
Visibility -9999.0 miles
Clouds
Dew Point 30 °F
Humidity 32%
Rainfall 0.00 in
Snow Depth Not available.
UV Not available.
Pollen 2.70 out of 12
Air Quality Not available.
Flu Activity Sporadic
METAR KN60 242252Z AUTO 30015KT 16/M01 A2992 RMK AO1 SLP138 T01561011

More Conditions Fewer Conditions

10-Day Weather Forecast

Almanac

Astronomy

Oct. 24, 2014 Rise Set
Actual Time 8:17 AM CDT 6:41 PM CDT
Civil Twilight 7:46 AM CDT 7:12 PM CDT
Nautical Twilight 7:10 AM CDT 7:48 PM CDT
Astronomical Twilight 6:34 AM CDT 8:24 PM CDT
Moon 9:01 AM CDT 7:18 PM CDT
Length of Visible Light 11h 26m
Length of Day
10h 23m
Tomorrow will be 3m 14s shorter.
New Moon, 1% of the Moon is Illuminated
Today
New Moon
Oct 30
First Quarter
Nov 6
Full
Nov 14
Last Quarter
Nov 22
New

Today's Extremes

State Highs State Lows

Community

WunderPhotos

Upload Photos

1,764,713 photos uploaded!

Nearby

Snow Depth

Station Depth Elevation
No new snow has been reported.

Earthquake Activity

City Distance Mag. Time & Date
No recent earthquake activity has been reported nearby.
Minimum magnitude displayed is 2.5.

Coastal Water Temperatures

Place Temperature
No Stations Reporting

Nearby Weather Stations